»·PEaware :: BADGR13 KEND-KEND

BADGR13 :: KEND-KEND

FLIGHT INFORMATION

Flight Status: Arrived
Operator: Unknown
More flights by this operator :: More flights under this callsign
Pilot: Abraham G. (22221)
Aircraft: BEECH AIRCRAFT T-6A TEXAN
(TEX2)
More flights by this aircraft type
Origin: KEND Vance AFB
United States
Destination: KEND Vance AFB
United States
More flights between these airports :: More routes between these airports
Route: +PNC F22
File this flight plan on PilotEdge
Remarks:
Altitude:
(Current/Filed)
0ft
Speed:
(Current/Filed)
0kts
Departed: 26-Mar-20 07:00 AM
Arrived: 26-Mar-20 07:46 AM
Distance/Time
Traveled:
0nm/0:46
Distance/Time
To Go:
Arrived

Flight Plot

Page will automatically refresh every two minutes.

Flight plan parsing failed; only flown route is shown


Map Options




Map Legend


Flown Route
Filed Route
Departure Airport
Arrival Airport
Navaid (VOR, NDB)
Fix

Horizontal Profiles

Position Reports

Time Latitude Longitude Heading Altitude Ground
Speed
26-Mar-20 06:57 36.346878 -97.910032 182 1279ft 0kts
26-Mar-20 06:58 36.346477 -97.911024 187 1279ft 9kts
26-Mar-20 06:59 36.312279 -97.909898 180 2385ft 180kts
26-Mar-20 07:00 36.258938 -97.901846 175 4609ft 211kts
26-Mar-20 07:01 36.230591 -97.854246 64 4976ft 224kts
26-Mar-20 07:02 36.258822 -97.784561 60 5033ft 235kts
26-Mar-20 07:03 36.289666 -97.712041 61 4938ft 242kts
26-Mar-20 07:04 36.319898 -97.637129 63 4982ft 235kts
26-Mar-20 07:05 36.348604 -97.563819 60 4851ft 246kts
26-Mar-20 07:06 36.380729 -97.489766 38 5395ft 244kts
26-Mar-20 07:07 36.435863 -97.431105 40 5423ft 272kts
26-Mar-20 07:08 36.488703 -97.369449 44 5368ft 259kts
26-Mar-20 07:09 36.541872 -97.310466 38 5519ft 256kts
26-Mar-20 07:10 36.595999 -97.251336 40 5451ft 257kts
26-Mar-20 07:11 36.649547 -97.191984 42 5369ft 262kts
26-Mar-20 07:12 36.710951 -97.156261 359 2547ft 232kts
26-Mar-20 07:13 36.758463 -97.155358 353 2303ft 132kts
26-Mar-20 07:14 36.770048 -97.119623 93 2336ft 133kts
26-Mar-20 07:15 36.746085 -97.099624 180 1151ft 109kts
26-Mar-20 07:16 36.710826 -97.106160 270 1759ft 188kts
26-Mar-20 07:17 36.745772 -97.136491 359 2718ft 165kts
26-Mar-20 07:18 36.768609 -97.115715 101 2385ft 124kts
26-Mar-20 07:19 36.742689 -97.099587 180 1019ft 98kts
26-Mar-20 07:20 36.707551 -97.100208 193 2263ft 183kts
26-Mar-20 07:21 36.659095 -97.123671 190 4571ft 216kts
26-Mar-20 07:22 36.592288 -97.143900 204 4496ft 242kts
26-Mar-20 07:23 36.540109 -97.192406 223 4444ft 231kts
26-Mar-20 07:24 36.491498 -97.245651 224 4282ft 233kts
26-Mar-20 07:25 36.436745 -97.276692 185 2881ft 196kts
26-Mar-20 07:26 36.397068 -97.277351 175 1193ft 101kts
26-Mar-20 07:27 36.363778 -97.275607 135 2089ft 170kts
26-Mar-20 07:28 36.385914 -97.224374 358 2510ft 215kts
26-Mar-20 07:29 36.420576 -97.250201 268 2430ft 197kts
26-Mar-20 07:30 36.381215 -97.277625 183 2581ft 212kts
26-Mar-20 07:31 36.361485 -97.316207 291 4259ft 186kts
26-Mar-20 07:32 36.373444 -97.385018 269 4650ft 224kts
26-Mar-20 07:33 36.374723 -97.461587 274 6104ft 191kts
26-Mar-20 07:34 36.372866 -97.535421 268 6595ft 235kts
26-Mar-20 07:35 36.374942 -97.620483 275 6368ft 248kts
26-Mar-20 07:36 36.376213 -97.704720 268 6591ft 242kts
26-Mar-20 07:37 36.389317 -97.780662 352 6305ft 254kts
26-Mar-20 07:38 36.457517 -97.778829 359 4205ft 243kts
26-Mar-20 07:39 36.491463 -97.834761 276 2159ft 222kts
26-Mar-20 07:40 36.469645 -97.897610 228 2263ft 201kts
26-Mar-20 07:41 36.415377 -97.909143 181 2296ft 205kts
26-Mar-20 07:42 36.358619 -97.910794 182 2208ft 194kts
26-Mar-20 07:43 36.350002 -97.894569 359 2189ft 142kts
26-Mar-20 07:44 36.353874 -97.910970 181 1457ft 113kts
26-Mar-20 07:45 36.334143 -97.910911 179 1290ft 15kts
26-Mar-20 07:46 36.335772 -97.908434 90 1294ft 11kts

Navigation Log

Ident Type
Flight plan parsing failed, navigation log unavailable